Time;durP1;ratioP1;P1;durP2;ratioP2;P2;SDS_P1;SDS_P2;PMS_P1;PMS_P2;Temp;Humidity;BMP_temperature;BMP_pressure;BME280_temperature;BME280_humidity;BME280_pressure;Samples;Min_cycle;Max_cycle;Signal;HPM_P1;HPM_P2
2023/12/20 00:01:08;;;;;;;8.50;7.10;;;;;;;4.03;100.00;95540.19;7395544;19;20408;-87
2023/12/20 00:03:36;;;;;;;10.30;8.27;;;;;;;4.35;100.00;95573.34;7394528;19;20379;-87
2023/12/20 00:06:10;;;;;;;10.27;8.60;;;;;;;4.16;100.00;95544.75;7395575;19;20377;-87
2023/12/20 00:08:37;;;;;;;10.30;7.37;;;;;;;4.11;100.00;95537.78;7395553;19;20364;-87
2023/12/20 00:11:04;;;;;;;9.13;7.47;;;;;;;4.56;100.00;95592.09;7395748;19;20395;-87
2023/12/20 00:13:32;;;;;;;11.37;10.20;;;;;;;3.95;100.00;95496.66;7395414;19;20404;-87
2023/12/20 00:15:59;;;;;;;10.40;8.83;;;;;;;4.09;100.00;95515.72;7396337;19;20380;-87
2023/12/20 00:18:28;;;;;;;8.10;7.23;;;;;;;5.06;100.00;95650.53;7395188;19;20866;-87
2023/12/20 00:21:11;;;;;;;10.80;8.20;;;;;;;4.61;100.00;95576.44;7396597;19;20475;-87
2023/12/20 00:23:38;;;;;;;10.97;8.77;;;;;;;4.45;100.00;95547.28;7394119;19;20463;-88
2023/12/20 00:26:06;;;;;;;9.30;7.77;;;;;;;4.29;100.00;95525.91;7395011;19;20380;-87
2023/12/20 00:28:33;;;;;;;11.50;8.50;;;;;;;4.67;100.00;95578.72;7395231;19;20374;-87
2023/12/20 00:31:01;;;;;;;8.07;7.30;;;;;;;4.49;100.00;95551.63;7396394;19;20380;-87
2023/12/20 00:33:28;;;;;;;9.30;8.40;;;;;;;4.17;100.00;95508.09;7395117;19;20392;-87
2023/12/20 00:35:56;;;;;;;10.77;8.53;;;;;;;4.59;100.00;95566.34;7395608;19;20364;-87
2023/12/20 00:38:23;;;;;;;8.53;7.13;;;;;;;4.23;100.00;95506.22;7395715;19;20843;-87
2023/12/20 00:40:50;;;;;;;12.83;8.37;;;;;;;3.95;100.00;95455.91;7394160;19;20420;-87
2023/12/20 00:43:18;;;;;;;13.30;7.20;;;;;;;4.64;100.00;95555.13;7401204;19;20414;-87
2023/12/20 00:45:45;;;;;;;7.87;7.07;;;;;;;4.97;100.00;95606.16;7404109;19;20370;-87
2023/12/20 00:48:13;;;;;;;11.10;7.93;;;;;;;4.52;100.00;95537.31;7402171;19;20364;-86
2023/12/20 00:50:40;;;;;;;9.03;7.80;;;;;;;4.16;100.00;95472.03;7401926;19;20463;-87
2023/12/20 00:53:07;;;;;;;7.70;6.90;;;;;;;5.01;100.00;95594.13;7399010;19;20425;-87
2023/12/20 00:55:35;;;;;;;8.20;7.37;;;;;;;4.58;100.00;95541.41;7401676;19;20365;-87
2023/12/20 00:58:02;;;;;;;7.33;6.63;;;;;;;5.40;100.00;95650.34;7401835;19;20659;-87
2023/12/20 01:00:30;;;;;;;8.00;5.20;;;;;;;4.68;100.00;95540.50;7401575;19;20437;-87
2023/12/20 01:02:57;;;;;;;8.23;7.43;;;;;;;4.54;100.00;95521.47;7398782;19;20416;-87
2023/12/20 01:05:25;;;;;;;7.23;6.53;;;;;;;4.17;100.00;95469.16;7400987;19;20392;-87
2023/12/20 01:07:52;;;;;;;8.50;6.07;;;;;;;4.22;100.00;95467.53;7401927;19;20373;-86
2023/12/20 01:10:20;;;;;;;6.97;6.27;;;;;;;4.46;100.00;95499.47;7400996;19;20873;-86
2023/12/20 01:12:47;;;;;;;9.40;6.27;;;;;;;4.96;100.00;95589.03;7398909;19;20388;-87
2023/12/20 01:15:15;;;;;;;7.83;7.07;;;;;;;4.46;100.00;95497.63;7401169;19;20356;-86
2023/12/20 01:17:42;;;;;;;6.20;5.70;;;;;;;5.13;100.00;95598.94;7400770;19;20388;-86
2023/12/20 01:20:13;;;;;;;7.97;5.90;;;;;;;4.92;100.00;95562.03;7400854;19;20690;-87
2023/12/20 01:22:42;;;;;;;7.63;6.23;;;;;;;4.68;100.00;95515.28;7399114;19;20412;-87
2023/12/20 01:25:10;;;;;;;7.47;6.43;;;;;;;4.55;100.00;95494.44;7400588;19;20402;-87
2023/12/20 01:27:37;;;;;;;6.43;5.40;;;;;;;4.11;100.00;95423.53;7401158;19;20369;-87
2023/12/20 01:30:05;;;;;;;5.67;5.17;;;;;;;3.79;100.00;95382.66;7400451;19;20708;-86
2023/12/20 01:32:33;;;;;;;6.77;6.00;;;;;;;4.21;100.00;95440.81;7400400;19;20888;-87
2023/12/20 01:35:00;;;;;;;4.70;4.30;;;;;;;4.48;100.00;95463.56;7400678;19;20377;-87
2023/12/20 01:37:29;;;;;;;5.60;5.10;;;;;;;4.68;100.00;95504.13;7400073;19;20422;-86
2023/12/20 01:39:58;;;;;;;5.90;5.33;;;;;;;5.35;100.00;95587.97;7400346;19;20404;-86
2023/12/20 01:42:26;;;;;;;3.90;3.57;;;;;;;4.55;100.00;95455.44;7398820;19;20417;-87
2023/12/20 01:44:53;;;;;;;4.50;4.07;;;;;;;4.74;100.00;95477.00;7402422;19;20365;-86
2023/12/20 01:47:22;;;;;;;4.30;3.90;;;;;;;5.09;100.00;95538.91;7400933;19;20393;-86
2023/12/20 01:49:50;;;;;;;5.63;3.60;;;;;;;4.67;100.00;95476.59;7402005;19;20917;-87
2023/12/20 01:52:18;;;;;;;4.83;3.43;;;;;;;4.32;100.00;95411.06;7396534;19;20397;-87
2023/12/20 01:54:47;;;;;;;4.87;4.43;;;;;;;5.12;100.00;95527.16;7399853;19;20380;-86
2023/12/20 01:57:15;;;;;;;4.40;3.10;;;;;;;4.79;100.00;95488.13;7400419;19;20398;-86
2023/12/20 01:59:44;;;;;;;3.50;3.03;;;;;;;4.75;100.00;95460.34;7399997;19;20697;-86
2023/12/20 02:02:12;;;;;;;3.50;3.10;;;;;;;4.39;100.00;95402.94;7398486;19;20921;-86
2023/12/20 02:04:40;;;;;;;3.90;2.23;;;;;;;5.40;100.00;95548.88;7397813;19;20413;-87
2023/12/20 02:07:09;;;;;;;3.07;2.33;;;;;;;4.82;100.00;95468.59;7399245;19;20393;-87
2023/12/20 02:09:38;;;;;;;2.30;2.10;;;;;;;4.56;100.00;95425.81;7399241;19;20390;-86
2023/12/20 02:12:05;;;;;;;1.90;1.77;;;;;;;5.13;100.00;95512.34;7397963;19;20405;-86
2023/12/20 02:14:33;;;;;;;2.27;1.80;;;;;;;4.56;100.00;95421.41;7398968;19;20460;-86
2023/12/20 02:17:00;;;;;;;1.20;1.10;;;;;;;4.98;100.00;95479.53;7398702;19;20394;-87
2023/12/20 02:19:28;;;;;;;1.93;1.70;;;;;;;4.85;100.00;95465.41;7400914;19;20373;-86
2023/12/20 02:22:07;;;;;;;1.93;1.10;;;;;;;4.79;100.00;95464.72;7397005;19;20589;-87
2023/12/20 02:24:35;;;;;;;1.67;1.47;;;;;;;5.04;100.00;95497.41;7397711;19;20393;-87
2023/12/20 02:27:03;;;;;;;1.77;1.40;;;;;;;4.64;100.00;95438.19;7399094;19;20385;-87
2023/12/20 02:29:30;;;;;;;1.47;1.17;;;;;;;5.23;100.00;95525.19;7400787;19;20353;-87
2023/12/20 02:31:58;;;;;;;1.20;0.90;;;;;;;4.72;100.00;95451.31;7397894;19;20416;-87
2023/12/20 02:34:25;;;;;;;1.60;1.50;;;;;;;5.15;100.00;95518.03;7398285;19;20397;-87
2023/12/20 02:36:53;;;;;;;1.77;1.47;;;;;;;4.92;100.00;95489.25;7400787;19;20361;-87
2023/12/20 02:39:22;;;;;;;1.10;1.00;;;;;;;4.84;100.00;95478.69;7399390;19;20433;-87
2023/12/20 02:41:49;;;;;;;1.33;0.90;;;;;;;5.25;100.00;95542.06;7397658;19;20402;-87
2023/12/20 02:44:17;;;;;;;1.20;1.10;;;;;;;4.70;100.00;95458.59;7397303;19;20379;-87
2023/12/20 02:46:44;;;;;;;1.73;1.40;;;;;;;4.77;100.00;95473.88;7397948;19;20428;-87
2023/12/20 02:49:12;;;;;;;1.40;1.30;;;;;;;5.01;100.00;95513.53;7398541;19;20369;-87
2023/12/20 02:51:46;;;;;;;1.73;1.37;;;;;;;4.94;100.00;95492.34;7398794;19;20403;-86
2023/12/20 02:54:21;;;;;;;1.50;1.13;;;;;;;4.48;100.00;95422.78;7398543;19;20382;-87
2023/12/20 02:56:48;;;;;;;1.50;1.40;;;;;;;4.51;100.00;95433.69;7397888;19;20886;-87
2023/12/20 02:59:16;;;;;;;1.20;1.00;;;;;;;4.42;100.00;95418.72;7398007;19;20436;-87
2023/12/20 03:01:45;;;;;;;1.07;0.97;;;;;;;4.56;100.00;95436.97;7397149;19;20404;-87
2023/12/20 03:04:16;;;;;;;1.20;1.10;;;;;;;4.83;100.00;95477.94;7395613;19;20391;-86
2023/12/20 03:06:43;;;;;;;1.70;1.10;;;;;;;4.32;100.00;95405.09;7398041;19;20369;-87
2023/12/20 03:09:12;;;;;;;1.40;1.07;;;;;;;4.63;100.00;95439.22;7397393;19;20369;-87
2023/12/20 03:11:39;;;;;;;1.10;1.00;;;;;;;4.29;100.00;95418.66;7396780;19;20415;-86
2023/12/20 03:14:07;;;;;;;1.00;1.00;;;;;;;4.28;100.00;95407.50;7397413;19;20868;-86
2023/12/20 03:16:34;;;;;;;2.00;1.23;;;;;;;4.76;100.00;95493.09;7397463;19;20381;-86
2023/12/20 03:19:03;;;;;;;0.97;0.90;;;;;;;4.23;100.00;95404.94;7396862;19;20692;-85
2023/12/20 03:21:31;;;;;;;1.23;1.13;;;;;;;3.87;100.00;95355.31;7397897;19;20687;-85
2023/12/20 03:23:58;;;;;;;1.27;1.17;;;;;;;4.06;100.00;95389.06;7396364;19;20388;-85
2023/12/20 03:26:26;;;;;;;1.10;1.00;;;;;;;4.69;100.00;95492.69;7396809;19;20377;-84
2023/12/20 03:28:53;;;;;;;0.90;0.90;;;;;;;3.74;100.00;95358.59;7396700;19;20850;-86
2023/12/20 03:31:21;;;;;;;1.17;1.07;;;;;;;4.09;100.00;95412.66;7395844;19;20403;-84
2023/12/20 03:33:50;;;;;;;1.20;1.10;;;;;;;3.73;100.00;95364.84;7396623;19;20384;-85
2023/12/20 03:36:18;;;;;;;1.50;1.27;;;;;;;4.56;100.00;95508.97;7396273;19;20685;-86
2023/12/20 03:38:46;;;;;;;0.90;0.90;;;;;;;4.53;100.00;95494.72;7395722;19;20365;-85
2023/12/20 03:41:13;;;;;;;1.70;1.60;;;;;;;3.41;100.00;95336.91;7397673;19;20830;-86
2023/12/20 03:43:41;;;;;;;0.90;0.90;;;;;;;4.00;100.00;95413.56;7395838;19;20878;-85
2023/12/20 03:46:09;;;;;;;1.10;1.00;;;;;;;5.16;100.00;95608.00;7396399;19;20389;-88
2023/12/20 03:48:36;;;;;;;1.20;0.90;;;;;;;4.35;100.00;95508.41;7396208;19;20353;-88
2023/12/20 03:51:04;;;;;;;0.93;0.83;;;;;;;3.81;100.00;95413.50;7396085;19;20393;-88
2023/12/20 03:53:31;;;;;;;0.90;0.90;;;;;;;4.00;100.00;95457.69;7396623;19;20361;-88
2023/12/20 03:55:59;;;;;;;0.90;0.80;;;;;;;4.41;100.00;95531.47;7396213;19;20390;-88
2023/12/20 03:58:26;;;;;;;0.90;0.87;;;;;;;4.20;100.00;95498.97;7395611;19;20704;-87
2023/12/20 04:00:54;;;;;;;1.03;0.93;;;;;;;4.51;100.00;95527.22;7395684;19;20385;-88
2023/12/20 04:03:22;;;;;;;0.87;0.80;;;;;;;3.72;100.00;95418.53;7396764;19;20444;-88
2023/12/20 04:05:49;;;;;;;0.70;0.70;;;;;;;3.62;100.00;95410.88;7397761;19;20361;-88
2023/12/20 04:08:17;;;;;;;0.90;0.70;;;;;;;4.16;100.00;95487.63;7395910;19;20429;-88
2023/12/20 04:10:44;;;;;;;1.10;1.00;;;;;;;3.82;100.00;95430.63;7397931;19;20428;-86
2023/12/20 04:13:11;;;;;;;2.27;0.80;;;;;;;3.93;100.00;95452.03;7394121;19;20389;-85
2023/12/20 04:15:39;;;;;;;1.17;1.07;;;;;;;3.63;100.00;95430.56;7396076;19;20393;-88
2023/12/20 04:18:07;;;;;;;1.00;1.00;;;;;;;4.36;100.00;95528.91;7420671;19;20373;-87
2023/12/20 04:20:34;;;;;;;0.90;0.80;;;;;;;3.86;100.00;95460.94;7434311;19;20432;-85
2023/12/20 04:23:01;;;;;;;0.70;0.70;;;;;;;4.43;100.00;95541.59;7431579;19;20435;-87
2023/12/20 04:25:29;;;;;;;0.70;0.70;;;;;;;3.47;100.00;95411.03;7432052;19;20395;-86
2023/12/20 04:27:56;;;;;;;0.90;0.80;;;;;;;4.29;100.00;95531.09;7433898;19;20392;-86
2023/12/20 04:30:23;;;;;;;1.00;0.90;;;;;;;3.61;100.00;95432.66;7433853;19;20400;-86
2023/12/20 04:32:51;;;;;;;1.00;0.80;;;;;;;4.12;100.00;95510.00;7431145;19;20417;-87
2023/12/20 04:35:18;;;;;;;0.80;0.80;;;;;;;4.29;100.00;95532.91;7430973;19;20381;-88
2023/12/20 04:37:47;;;;;;;0.70;0.70;;;;;;;4.89;100.00;95624.19;7402494;19;20463;-88
2023/12/20 04:40:15;;;;;;;0.80;0.80;;;;;;;4.31;100.00;95552.38;7400298;19;20423;-88
2023/12/20 04:42:42;;;;;;;0.80;0.77;;;;;;;4.10;100.00;95502.50;7400589;19;20929;-87
2023/12/20 04:45:12;;;;;;;2.07;0.90;;;;;;;4.09;100.00;95513.91;7400787;19;20452;-88
2023/12/20 04:47:41;;;;;;;1.03;0.93;;;;;;;4.27;100.00;95532.41;7402722;19;20381;-87
2023/12/20 04:50:10;;;;;;;0.80;0.80;;;;;;;3.46;100.00;95402.47;7402467;19;20385;-88
2023/12/20 04:52:39;;;;;;;1.07;0.87;;;;;;;3.80;100.00;95451.66;7400098;19;20744;-88
2023/12/20 04:55:06;;;;;;;0.77;0.70;;;;;;;4.32;100.00;95527.16;7402456;19;20445;-87
2023/12/20 04:57:34;;;;;;;0.80;0.80;;;;;;;4.13;100.00;95496.72;7402113;19;20377;-85
2023/12/20 05:00:02;;;;;;;1.07;1.00;;;;;;;4.41;100.00;95533.31;7401228;19;20399;-85
2023/12/20 05:02:30;;;;;;;0.97;0.77;;;;;;;4.26;100.00;95502.31;7400315;19;20973;-89
2023/12/20 05:04:57;;;;;;;0.80;0.80;;;;;;;4.57;100.00;95567.66;7400791;19;20384;-89
2023/12/20 05:07:25;;;;;;;0.70;0.70;;;;;;;4.80;100.00;95595.47;7402662;19;20399;-89
2023/12/20 05:09:53;;;;;;;0.80;0.80;;;;;;;4.78;100.00;95600.16;7402057;19;20462;-89
2023/12/20 05:12:20;;;;;;;1.30;1.20;;;;;;;4.81;100.00;95598.84;7402449;19;20404;-89
2023/12/20 05:14:48;;;;;;;0.93;0.87;;;;;;;4.76;100.00;95594.44;7402080;19;20367;-89
2023/12/20 05:17:15;;;;;;;9.30;1.43;;;;;;;4.79;100.00;95599.91;7401853;19;20381;-90
2023/12/20 05:19:43;;;;;;;1.47;1.20;;;;;;;4.74;100.00;95606.97;7401712;19;20404;-90
2023/12/20 05:22:10;;;;;;;1.37;1.27;;;;;;;4.83;100.00;95605.31;7399676;19;20729;-87
2023/12/20 05:24:38;;;;;;;1.00;1.00;;;;;;;4.82;100.00;95614.16;7399568;19;20864;-87
2023/12/20 05:27:05;;;;;;;0.70;0.70;;;;;;;4.48;100.00;95563.06;7400709;19;20394;-87
2023/12/20 05:29:33;;;;;;;1.20;1.10;;;;;;;4.22;100.00;95527.25;7402256;19;20361;-87
2023/12/20 05:32:00;;;;;;;1.20;0.90;;;;;;;4.80;100.00;95611.06;7399656;19;20368;-86
2023/12/20 05:34:28;;;;;;;1.63;1.27;;;;;;;4.95;100.00;95639.47;7400706;19;20874;-88
2023/12/20 05:36:56;;;;;;;1.73;1.10;;;;;;;4.34;100.00;95553.63;7400802;19;20691;-87
2023/12/20 05:39:23;;;;;;;1.33;0.97;;;;;;;4.39;100.00;95558.78;7399398;19;20388;-87
2023/12/20 05:41:51;;;;;;;0.87;0.80;;;;;;;4.54;100.00;95584.59;7399616;19;20420;-88
2023/12/20 05:44:19;;;;;;;0.87;0.87;;;;;;;4.88;100.00;95644.22;7399838;19;20465;-87
2023/12/20 05:46:46;;;;;;;1.23;1.13;;;;;;;4.53;100.00;95572.66;7400520;19;20380;-88
2023/12/20 05:49:14;;;;;;;2.00;1.20;;;;;;;5.00;100.00;95649.03;7400200;19;20372;-87
2023/12/20 05:51:41;;;;;;;1.17;1.07;;;;;;;4.83;100.00;95638.31;7399414;19;20409;-87
2023/12/20 05:54:09;;;;;;;1.00;0.90;;;;;;;4.76;100.00;95641.25;7399545;19;20381;-87
2023/12/20 05:56:36;;;;;;;1.03;0.93;;;;;;;4.82;100.00;95645.34;7400398;19;20475;-87
2023/12/20 05:59:04;;;;;;;0.80;0.80;;;;;;;4.81;100.00;95640.44;7400165;19;20377;-87
2023/12/20 06:01:31;;;;;;;1.10;1.00;;;;;;;4.71;100.00;95631.69;7399219;19;20412;-86
2023/12/20 06:03:59;;;;;;;0.90;0.90;;;;;;;4.86;100.00;95661.16;7398992;19;20380;-86
2023/12/20 06:06:26;;;;;;;0.80;0.80;;;;;;;4.87;100.00;95642.69;7399364;19;20850;-87
2023/12/20 06:08:57;;;;;;;0.93;0.87;;;;;;;5.01;100.00;95664.34;7399306;19;20357;-87
2023/12/20 06:11:26;;;;;;;1.17;1.07;;;;;;;4.65;100.00;95621.63;7399043;19;20381;-87
2023/12/20 06:13:53;;;;;;;1.03;1.03;;;;;;;4.88;100.00;95653.84;7399506;19;20456;-87
2023/12/20 06:16:21;;;;;;;1.10;1.00;;;;;;;4.25;100.00;95555.31;7398815;19;20401;-87
2023/12/20 06:18:48;;;;;;;1.20;1.10;;;;;;;4.55;100.00;95613.94;7399597;19;20372;-87
2023/12/20 06:21:16;;;;;;;2.93;2.60;;;;;;;4.92;100.00;95665.25;7398332;19;20397;-88
2023/12/20 06:23:43;;;;;;;0.83;0.83;;;;;;;4.49;100.00;95623.59;7398557;19;20403;-87
2023/12/20 06:26:11;;;;;;;1.00;0.83;;;;;;;4.87;100.00;95660.88;7397463;19;20381;-88
2023/12/20 06:28:38;;;;;;;3.80;3.40;;;;;;;4.87;100.00;95654.91;7400273;19;20425;-88
2023/12/20 06:31:08;;;;;;;1.80;1.00;;;;;;;4.81;100.00;95645.63;7398465;19;20408;-87
2023/12/20 06:33:36;;;;;;;1.37;1.27;;;;;;;4.86;100.00;95650.75;7398285;19;20894;-88
2023/12/20 06:36:04;;;;;;;1.60;1.50;;;;;;;4.27;100.00;95585.13;7399143;19;20409;-87
2023/12/20 06:38:31;;;;;;;1.00;1.00;;;;;;;4.61;100.00;95626.59;7396454;19;20360;-87
2023/12/20 06:40:59;;;;;;;1.70;1.60;;;;;;;4.25;100.00;95566.47;7398427;19;20371;-87
2023/12/20 06:43:26;;;;;;;0.90;0.90;;;;;;;4.58;100.00;95623.78;7398763;19;20397;-87
2023/12/20 06:46:13;;;;;;;1.10;1.00;;;;;;;4.26;100.00;95583.59;7397056;19;20377;-86
2023/12/20 06:48:41;;;;;;;1.00;1.00;;;;;;;4.51;100.00;95623.34;7398450;19;20737;-87
2023/12/20 06:51:15;;;;;;;1.03;0.93;;;;;;;4.99;100.00;95697.66;7397943;19;20424;-88
2023/12/20 06:53:43;;;;;;;2.10;1.60;;;;;;;4.64;100.00;95640.88;7398187;19;20937;-86
2023/12/20 06:56:26;;;;;;;1.60;1.50;;;;;;;4.94;100.00;95696.94;7399546;19;20377;-86
2023/12/20 06:58:54;;;;;;;1.43;1.33;;;;;;;4.31;100.00;95585.34;7396029;19;20709;-87
2023/12/20 07:01:22;;;;;;;1.30;1.20;;;;;;;3.88;100.00;95536.72;7397203;19;20471;-86
2023/12/20 07:03:50;;;;;;;2.00;1.90;;;;;;;4.09;100.00;95571.00;7399162;19;20849;-87
2023/12/20 07:06:17;;;;;;;2.60;1.03;;;;;;;4.37;100.00;95608.41;7395421;19;20874;-87
2023/12/20 07:08:45;;;;;;;1.60;1.50;;;;;;;4.30;100.00;95613.16;7396993;19;20882;-86
2023/12/20 07:11:12;;;;;;;1.20;1.10;;;;;;;5.03;100.00;95708.28;7396901;19;20400;-87
2023/12/20 07:13:39;;;;;;;1.30;1.20;;;;;;;4.57;100.00;95654.19;7397707;19;20393;-87
2023/12/20 07:16:07;;;;;;;2.03;1.23;;;;;;;4.45;100.00;95635.59;7397929;19;20400;-87
2023/12/20 07:18:34;;;;;;;2.40;2.20;;;;;;;4.25;100.00;95599.44;7397201;19;20399;-87
2023/12/20 07:21:02;;;;;;;2.90;2.10;;;;;;;4.17;100.00;95598.22;7396322;19;20381;-87
2023/12/20 07:23:29;;;;;;;3.60;2.27;;;;;;;4.63;100.00;95680.88;7396432;19;20419;-87
2023/12/20 07:25:57;;;;;;;3.50;2.90;;;;;;;4.41;100.00;95652.78;7395419;19;20749;-87
2023/12/20 07:28:24;;;;;;;2.63;1.97;;;;;;;4.51;100.00;95657.91;7397007;19;20452;-87
2023/12/20 07:30:52;;;;;;;10.90;5.20;;;;;;;4.23;100.00;95622.31;7396381;19;20882;-87
2023/12/20 07:33:21;;;;;;;4.10;3.60;;;;;;;4.38;100.00;95650.75;7400643;19;20385;-88
2023/12/20 07:35:56;;;;;;;2.83;2.30;;;;;;;4.68;100.00;95702.41;7400172;19;20675;-88
2023/12/20 07:38:24;;;;;;;3.73;2.40;;;;;;;4.70;100.00;95700.31;7398058;19;20377;-88
2023/12/20 07:40:52;;;;;;;7.37;6.60;;;;;;;5.10;100.00;95760.75;7395828;19;20397;-87
2023/12/20 07:43:19;;;;;;;4.53;4.13;;;;;;;4.80;100.00;95720.22;7398102;19;20683;-87
2023/12/20 07:45:47;;;;;;;2.50;2.03;;;;;;;5.03;100.00;95744.69;7396999;19;20678;-88
2023/12/20 07:48:14;;;;;;;2.70;2.40;;;;;;;4.80;100.00;95730.63;7397517;19;20373;-88
2023/12/20 07:50:42;;;;;;;3.43;3.07;;;;;;;4.90;100.00;95740.94;7398550;19;20388;-87
2023/12/20 07:53:10;;;;;;;2.30;2.20;;;;;;;4.18;100.00;95610.16;7401268;19;20416;-88
2023/12/20 07:55:37;;;;;;;3.80;3.50;;;;;;;4.60;100.00;95671.03;7404611;19;20400;-88
2023/12/20 07:58:05;;;;;;;3.40;3.10;;;;;;;4.63;100.00;95681.66;7404087;19;20456;-88
2023/12/20 08:00:32;;;;;;;3.10;2.80;;;;;;;4.72;100.00;95697.44;7404181;19;20394;-87
2023/12/20 08:03:03;;;;;;;4.47;4.07;;;;;;;4.16;100.00;95612.25;7401122;19;20487;-87
2023/12/20 08:05:30;;;;;;;2.83;2.63;;;;;;;4.07;100.00;95593.13;7404270;19;20421;-88
2023/12/20 08:07:58;;;;;;;2.90;2.70;;;;;;;4.67;100.00;95682.66;7404335;19;20435;-87
2023/12/20 08:10:27;;;;;;;3.20;2.20;;;;;;;4.78;100.00;95699.72;7403717;19;20371;-88
2023/12/20 08:12:54;;;;;;;1.93;1.83;;;;;;;5.25;100.00;95759.78;7401941;19;20439;-86
2023/12/20 08:15:22;;;;;;;2.30;2.10;;;;;;;4.97;100.00;95714.59;7410311;19;20845;-88
2023/12/20 08:17:53;;;;;;;8.97;3.13;;;;;;;5.30;100.00;95749.31;7404972;19;20379;-87
2023/12/20 08:20:20;;;;;;;2.40;2.23;;;;;;;4.96;100.00;95716.41;7403148;19;20391;-87
2023/12/20 08:22:59;;;;;;;2.90;2.60;;;;;;;5.62;100.00;95796.31;7400804;19;20408;-87
2023/12/20 08:25:27;;;;;;;3.30;3.07;;;;;;;5.25;100.00;95750.16;7401890;19;20396;-88
2023/12/20 08:27:54;;;;;;;2.70;2.50;;;;;;;5.00;100.00;95696.59;7404846;19;20383;-88
2023/12/20 08:30:22;;;;;;;3.93;3.20;;;;;;;4.78;100.00;95676.31;7402943;19;20726;-88
2023/12/20 08:32:49;;;;;;;3.13;2.80;;;;;;;4.83;100.00;95672.88;7402023;19;20962;-88
2023/12/20 08:35:18;;;;;;;41.37;30.30;;;;;;;4.78;100.00;95652.16;7402303;19;20912;-88
2023/12/20 08:37:46;;;;;;;3.13;2.83;;;;;;;4.99;100.00;95702.84;7402356;19;20404;-88
2023/12/20 08:40:13;;;;;;;3.73;3.33;;;;;;;5.09;100.00;95691.56;7400311;19;20402;-88
2023/12/20 08:42:41;;;;;;;4.20;3.23;;;;;;;5.00;100.00;95686.22;7400150;19;20405;-88
2023/12/20 08:45:08;;;;;;;3.90;3.47;;;;;;;5.20;100.00;95711.22;7401685;19;20380;-88
2023/12/20 08:47:36;;;;;;;3.13;2.93;;;;;;;5.23;100.00;95709.88;7402657;19;20412;-88
2023/12/20 08:50:04;;;;;;;5.10;4.60;;;;;;;5.82;100.00;95797.13;7402155;19;20882;-88
2023/12/20 08:52:34;;;;;;;4.57;4.17;;;;;;;5.07;100.00;95683.28;7400070;19;20385;-88
2023/12/20 08:55:02;;;;;;;3.90;3.33;;;;;;;5.15;100.00;95706.06;7402562;19;20400;-88
2023/12/20 08:57:31;;;;;;;5.43;3.87;;;;;;;5.19;100.00;95698.50;7401454;19;20406;-88
2023/12/20 08:59:59;;;;;;;4.37;3.73;;;;;;;5.41;100.00;95723.97;7403736;19;20369;-88
2023/12/20 09:02:27;;;;;;;5.87;4.63;;;;;;;5.59;100.00;95746.66;7398496;19;20408;-88
2023/12/20 09:04:55;;;;;;;3.73;3.30;;;;;;;5.34;100.00;95721.72;7401333;19;20380;-88
2023/12/20 09:07:27;;;;;;;3.27;2.80;;;;;;;5.98;100.00;95801.09;7398799;19;20409;-88
2023/12/20 09:09:54;;;;;;;3.10;2.80;;;;;;;5.19;100.00;95701.88;7401354;19;20381;-88
2023/12/20 09:12:23;;;;;;;2.87;2.67;;;;;;;5.09;100.00;95681.94;7399599;19;20866;-88
2023/12/20 09:14:52;;;;;;;4.30;2.63;;;;;;;5.80;100.00;95794.78;7401507;19;20377;-88
2023/12/20 09:17:20;;;;;;;3.20;3.00;;;;;;;5.45;100.00;95738.75;7400980;19;20384;-88
2023/12/20 09:19:48;;;;;;;4.30;3.10;;;;;;;4.97;100.00;95667.78;7401275;19;20428;-88
2023/12/20 09:22:16;;;;;;;2.70;2.47;;;;;;;5.00;100.00;95651.63;7399251;19;20973;-88
2023/12/20 09:24:43;;;;;;;4.97;3.20;;;;;;;5.46;100.00;95729.91;7401202;19;20745;-87
2023/12/20 09:27:10;;;;;;;3.60;3.23;;;;;;;5.35;100.00;95723.28;7398838;19;20702;-88
2023/12/20 09:29:38;;;;;;;3.47;3.20;;;;;;;4.67;100.00;95609.13;7400633;19;20397;-88
2023/12/20 09:32:05;;;;;;;3.33;3.03;;;;;;;5.45;100.00;95730.97;7399694;19;20456;-89
2023/12/20 09:34:33;;;;;;;3.77;3.40;;;;;;;4.87;100.00;95628.91;7401109;19;20367;-88
2023/12/20 09:37:01;;;;;;;3.17;2.87;;;;;;;6.01;100.00;95803.13;7400724;19;20372;-88
2023/12/20 09:39:28;;;;;;;3.30;3.00;;;;;;;5.63;100.00;95750.25;7399416;19;20407;-88
2023/12/20 09:42:02;;;;;;;3.73;3.07;;;;;;;5.71;100.00;95767.06;7399133;19;20945;-88
2023/12/20 09:44:30;;;;;;;2.60;2.40;;;;;;;5.94;100.00;95794.88;7400979;19;20388;-88
2023/12/20 09:46:57;;;;;;;3.07;2.53;;;;;;;5.93;100.00;95790.72;7398930;19;20456;-88
2023/12/20 09:49:27;;;;;;;2.40;2.20;;;;;;;5.77;100.00;95771.16;7399909;19;20376;-88
2023/12/20 09:51:56;;;;;;;2.43;2.23;;;;;;;5.55;100.00;95724.81;7399111;19;20693;-88
2023/12/20 09:54:24;;;;;;;2.17;1.97;;;;;;;5.93;100.00;95772.50;7400256;19;20401;-88
2023/12/20 09:56:51;;;;;;;1.63;1.53;;;;;;;5.76;100.00;95726.13;7400646;19;20385;-88
2023/12/20 09:59:19;;;;;;;2.77;2.47;;;;;;;5.54;100.00;95695.44;7399662;19;20393;-88
2023/12/20 10:01:46;;;;;;;2.80;2.00;;;;;;;6.14;100.00;95767.78;7399173;19;20408;-88
2023/12/20 10:04:15;;;;;;;2.63;2.43;;;;;;;5.82;100.00;95698.16;7401136;19;20444;-88
2023/12/20 10:06:56;;;;;;;2.33;1.87;;;;;;;6.01;100.00;95742.44;7399956;19;20398;-88
2023/12/20 10:09:26;;;;;;;1.93;1.83;;;;;;;5.94;100.00;95753.22;7398881;19;20922;-88
2023/12/20 10:11:54;;;;;;;2.20;2.00;;;;;;;5.89;100.00;95719.44;7399734;19;20416;-88
2023/12/20 10:14:23;;;;;;;1.60;1.50;;;;;;;6.12;100.00;95793.34;7397356;19;20379;-88
2023/12/20 10:16:50;;;;;;;1.80;1.70;;;;;;;5.55;100.00;95710.00;7399219;19;20377;-88
2023/12/20 10:19:19;;;;;;;2.10;1.90;;;;;;;6.00;100.00;95766.94;7400907;19;20372;-88
2023/12/20 10:21:48;;;;;;;2.97;2.00;;;;;;;5.69;100.00;95736.09;7398021;19;20901;-88
2023/12/20 10:24:19;;;;;;;1.77;1.60;;;;;;;5.47;100.00;95721.03;7399480;19;20384;-88
2023/12/20 10:26:46;;;;;;;2.33;2.13;;;;;;;6.04;100.00;95779.13;7397560;19;20680;-88
2023/12/20 10:29:14;;;;;;;4.10;1.90;;;;;;;5.42;100.00;95684.66;7398964;19;20372;-88
2023/12/20 10:31:42;;;;;;;3.33;2.80;;;;;;;6.19;100.00;95812.00;7397930;19;20400;-88
2023/12/20 10:34:10;;;;;;;1.73;1.63;;;;;;;5.75;100.00;95765.47;7398494;19;20369;-88
2023/12/20 10:36:38;;;;;;;2.03;1.87;;;;;;;5.85;100.00;95757.53;7400081;19;20393;-88
2023/12/20 10:39:11;;;;;;;1.77;1.60;;;;;;;5.89;100.00;95763.72;7404772;19;20400;-88
2023/12/20 10:41:41;;;;;;;3.83;2.10;;;;;;;5.43;100.00;95701.03;7417320;19;20416;-88
2023/12/20 10:44:14;;;;;;;3.00;2.27;;;;;;;5.78;100.00;95754.47;7421541;19;20385;-88
2023/12/20 10:46:47;;;;;;;2.43;2.23;;;;;;;5.84;100.00;95767.16;7422400;19;20361;-88
2023/12/20 10:49:15;;;;;;;1.60;1.50;;;;;;;5.37;100.00;95676.94;7426562;19;20413;-88
2023/12/20 10:51:45;;;;;;;3.40;2.30;;;;;;;5.28;100.00;95666.34;7427085;19;20452;-88
2023/12/20 10:54:16;;;;;;;2.93;1.80;;;;;;;6.21;100.00;95802.06;7428552;19;20402;-87
2023/12/20 10:56:45;;;;;;;2.60;2.40;;;;;;;6.20;100.00;95800.53;7429027;19;20380;-86
2023/12/20 10:59:17;;;;;;;5.07;2.00;;;;;;;5.06;100.00;95616.72;7426909;19;20396;-88
2023/12/20 11:01:47;;;;;;;6.03;2.07;;;;;;;5.60;100.00;95717.75;7403637;19;20405;-88
2023/12/20 11:04:22;;;;;;;2.30;2.10;;;;;;;5.35;100.00;95672.00;7402061;19;20698;-89
2023/12/20 11:07:03;;;;;;;2.40;2.20;;;;;;;6.02;100.00;95781.25;7399368;19;20377;-88
2023/12/20 11:09:38;;;;;;;4.83;3.00;;;;;;;5.38;100.00;95707.88;7398958;19;20396;-88
2023/12/20 11:12:16;;;;;;;3.43;2.00;;;;;;;5.83;100.00;95772.63;7397271;19;20381;-89
2023/12/20 11:14:49;;;;;;;2.80;1.70;;;;;;;5.29;100.00;95698.34;7399308;19;20364;-89
2023/12/20 11:17:17;;;;;;;1.70;1.60;;;;;;;4.67;100.00;95606.53;7397609;19;20389;-88
2023/12/20 11:19:57;;;;;;;2.10;1.70;;;;;;;5.78;100.00;95767.50;7399044;19;20393;-88
2023/12/20 11:22:26;;;;;;;6.17;3.67;;;;;;;5.53;100.00;95742.56;7396113;19;20459;-88
2023/12/20 11:24:55;;;;;;;4.97;2.13;;;;;;;5.03;100.00;95654.44;7396214;19;20870;-88
2023/12/20 11:27:23;;;;;;;3.73;2.10;;;;;;;5.05;100.00;95667.19;7397293;19;20393;-88
2023/12/20 11:29:52;;;;;;;2.93;2.73;;;;;;;5.07;100.00;95646.88;7396657;19;20772;-88
2023/12/20 11:32:28;;;;;;;5.63;3.20;;;;;;;5.77;100.00;95758.13;7396072;19;20412;-88
2023/12/20 11:34:59;;;;;;;2.73;2.27;;;;;;;5.45;100.00;95711.97;7397058;19;20675;-88
2023/12/20 11:37:32;;;;;;;9.30;2.50;;;;;;;4.87;100.00;95621.88;7397021;19;20448;-88
2023/12/20 11:40:03;;;;;;;3.60;2.50;;;;;;;5.00;100.00;95643.81;7395557;19;20394;-87